Little River, South Carolina
Current Conditions -  °F | °C
As of 10:53 AM on Sunday 21 Dec 2014 (Local Time) from KCRE Reporting Station
Broken Clouds Broken Clouds  
Wind Chill: 40°   Ceiling: 9000
Heat Index: 45°   Visibility: 10mi
Dew Point: 36°   Wind: 10mph
Humidity: 71%   Direction: 30°NNE
Pressure: 30.27"   Gusts: NA
Location:  33.87°N, 78.61°W
Report Text: KCRE 211553Z 03009KT 10SM FEW075 BKN090 BKN110 07/02 A3027 RMK AO1 SLP250 T00720022
Loading
Personal Weather Stations






























Interactive Weather Map New forecast layout! Learn more

10-Day Weather Forecast

Advertisements
Track Severe Weather on mobile